createdAt,value
2023-01-11T00:01:08.216Z,0.32
2023-01-11T00:03:34.767Z,0.40
2023-01-11T00:06:01.221Z,0.30
2023-01-11T00:08:28.302Z,0.43
2023-01-11T00:10:55.567Z,0.30
2023-01-11T00:13:22.193Z,0.60
2023-01-11T00:15:48.574Z,0.50
2023-01-11T00:18:14.984Z,0.30
2023-01-11T00:20:41.792Z,0.40
2023-01-11T00:23:08.938Z,0.30
2023-01-11T00:25:35.843Z,0.40
2023-01-11T00:28:03.216Z,0.30
2023-01-11T00:30:29.741Z,0.32
2023-01-11T00:32:57.679Z,0.30
2023-01-11T00:35:25.263Z,0.43
2023-01-11T00:37:53.817Z,0.43
2023-01-11T00:40:20.663Z,0.20
2023-01-11T00:43:05.955Z,0.30
2023-01-11T00:45:50.677Z,0.40
2023-01-11T00:48:17.070Z,0.32
2023-01-11T00:50:43.407Z,0.30
2023-01-11T00:53:09.874Z,0.30
2023-01-11T00:55:36.869Z,0.30
2023-01-11T00:58:03.860Z,0.35
2023-01-11T01:00:30.706Z,0.30
2023-01-11T01:02:57.460Z,0.30
2023-01-11T01:05:24.275Z,0.20
2023-01-11T01:07:50.811Z,0.40
2023-01-11T01:10:18.198Z,0.30
2023-01-11T01:13:04.202Z,0.28
2023-01-11T01:15:31.206Z,0.32
2023-01-11T01:17:57.591Z,0.30
2023-01-11T01:20:24.721Z,0.25
2023-01-11T01:22:51.681Z,0.25
2023-01-11T01:25:18.349Z,0.30
2023-01-11T01:27:47.379Z,0.45
2023-01-11T01:30:14.400Z,0.30
2023-01-11T01:32:40.820Z,0.40
2023-01-11T01:35:07.828Z,0.20
2023-01-11T01:37:34.303Z,0.30
2023-01-11T01:40:00.692Z,0.40
2023-01-11T01:42:27.155Z,0.20
2023-01-11T01:45:06.166Z,0.20
2023-01-11T01:47:53.516Z,0.30
2023-01-11T01:50:53.217Z,0.20
2023-01-11T01:53:37.045Z,0.20
2023-01-11T01:56:08.349Z,0.10
2023-01-11T01:58:43.585Z,0.20
2023-01-11T02:01:29.216Z,0.28
2023-01-11T02:03:55.621Z,0.35
2023-01-11T02:06:23.141Z,0.30
2023-01-11T02:08:56.752Z,0.40
2023-01-11T02:11:32.391Z,0.40
2023-01-11T02:14:03.286Z,0.30
2023-01-11T02:16:30.336Z,0.10
2023-01-11T02:18:58.144Z,0.10
2023-01-11T02:21:55.181Z,0.20
2023-01-11T02:24:56.338Z,0.25
2023-01-11T02:27:36.113Z,0.20
2023-01-11T02:30:22.054Z,0.32
2023-01-11T02:33:07.215Z,0.17
2023-01-11T02:35:39.729Z,0.10
2023-01-11T02:38:20.413Z,0.43
2023-01-11T02:40:55.086Z,0.20
2023-01-11T02:43:57.862Z,0.20
2023-01-11T02:46:52.953Z,0.22
2023-01-11T02:49:36.767Z,0.13
2023-01-11T02:52:12.728Z,0.32
2023-01-11T02:54:44.308Z,0.20
2023-01-11T02:57:12.053Z,0.63
2023-01-11T02:59:39.726Z,0.22
2023-01-11T03:02:06.179Z,0.13
2023-01-11T03:04:34.279Z,0.40
2023-01-11T03:07:38.601Z,0.30
2023-01-11T03:10:26.629Z,0.20
2023-01-11T03:13:16.261Z,0.10
2023-01-11T03:15:58.543Z,0.17
2023-01-11T03:18:33.667Z,0.40
2023-01-11T03:21:06.116Z,0.10
2023-01-11T03:23:52.169Z,0.38
2023-01-11T03:26:33.594Z,0.20
2023-01-11T03:29:10.205Z,0.05
2023-01-11T03:31:40.983Z,0.30
2023-01-11T03:34:35.422Z,0.20
2023-01-11T03:37:32.530Z,0.10
2023-01-11T03:40:06.433Z,0.03
2023-01-11T03:42:34.119Z,0.20
2023-01-11T03:45:02.520Z,0.10
2023-01-11T03:47:30.263Z,0.20
2023-01-11T03:50:03.908Z,0.10
2023-01-11T03:52:35.763Z,0.10
2023-01-11T03:55:05.911Z,0.10
2023-01-11T03:57:36.235Z,0.25
2023-01-11T04:00:04.968Z,0.30
2023-01-11T04:02:38.890Z,0.13
2023-01-11T04:05:07.068Z,0.10
2023-01-11T04:07:33.455Z,0.10
2023-01-11T04:09:59.832Z,0.10
2023-01-11T04:12:26.928Z,0.17
2023-01-11T04:14:53.352Z,0.10
2023-01-11T04:17:19.980Z,0.20
2023-01-11T04:19:47.040Z,0.10
2023-01-11T04:22:13.436Z,0.10
2023-01-11T04:24:39.897Z,0.10
2023-01-11T04:27:06.550Z,0.10
2023-01-11T04:29:32.955Z,0.00
2023-01-11T04:31:59.338Z,0.15
2023-01-11T04:34:25.686Z,0.10
2023-01-11T04:36:52.036Z,0.10
2023-01-11T04:39:18.438Z,0.08
2023-01-11T04:42:03.372Z,0.10
2023-01-11T04:44:32.834Z,0.13
2023-01-11T04:46:59.354Z,0.17
2023-01-11T04:49:25.721Z,0.10
2023-01-11T04:51:52.075Z,0.00
2023-01-11T04:54:18.573Z,0.10
2023-01-11T04:56:44.912Z,0.10
2023-01-11T04:59:11.272Z,0.13
2023-01-11T05:01:37.620Z,0.10
2023-01-11T05:04:04.170Z,0.10
2023-01-11T05:06:30.599Z,0.10
2023-01-11T05:08:57.091Z,0.15
2023-01-11T05:11:23.548Z,0.10
2023-01-11T05:13:49.931Z,0.10
2023-01-11T05:16:19.754Z,0.00
2023-01-11T05:18:54.995Z,0.00
2023-01-11T05:21:24.115Z,0.10
2023-01-11T05:23:51.201Z,0.10
2023-01-11T05:26:22.689Z,0.10
2023-01-11T05:28:49.439Z,0.10
2023-01-11T05:31:16.293Z,0.10
2023-01-11T05:33:43.163Z,0.00
2023-01-11T05:36:16.177Z,0.10
2023-01-11T05:38:44.877Z,0.10
2023-01-11T05:41:11.295Z,0.30
2023-01-11T05:43:56.726Z,0.08
2023-01-11T05:46:23.597Z,0.10
2023-01-11T05:48:50.615Z,0.10
2023-01-11T05:51:17.170Z,0.00
2023-01-11T05:53:43.850Z,0.00
2023-01-11T05:56:10.230Z,0.00
2023-01-11T05:58:36.827Z,0.00
2023-01-11T06:01:03.291Z,0.20
2023-01-11T06:03:29.697Z,0.10
2023-01-11T06:05:59.120Z,0.10
2023-01-11T06:08:26.103Z,0.38
2023-01-11T06:10:53.745Z,0.17
2023-01-11T06:13:26.723Z,0.00
2023-01-11T06:15:54.003Z,0.10
2023-01-11T06:18:20.598Z,0.10
2023-01-11T06:20:51.604Z,0.15
2023-01-11T06:23:18.142Z,0.20
2023-01-11T06:25:45.455Z,0.22
2023-01-11T06:28:12.498Z,0.30
2023-01-11T06:30:39.000Z,0.20
2023-01-11T06:33:06.661Z,0.10
2023-01-11T06:35:34.348Z,0.20
2023-01-11T06:38:00.711Z,0.20
2023-01-11T06:40:27.090Z,0.20
2023-01-11T06:42:53.547Z,0.17
2023-01-11T06:45:22.106Z,0.45
2023-01-11T06:47:48.974Z,0.20
2023-01-11T06:50:16.135Z,0.30
2023-01-11T06:52:42.491Z,0.30
2023-01-11T06:55:09.698Z,0.25
2023-01-11T06:57:36.133Z,0.32
2023-01-11T07:00:03.649Z,0.40
2023-01-11T07:02:30.200Z,0.20
2023-01-11T07:04:56.612Z,0.57
2023-01-11T07:07:23.102Z,0.77
2023-01-11T07:09:49.504Z,0.50
2023-01-11T07:12:15.910Z,0.40
2023-01-11T07:14:42.259Z,0.30
2023-01-11T07:17:08.684Z,0.57
2023-01-11T07:19:35.131Z,0.77
2023-01-11T07:22:01.796Z,0.32
2023-01-11T07:24:28.439Z,0.40
2023-01-11T07:26:56.168Z,0.55
2023-01-11T07:29:22.604Z,0.73
2023-01-11T07:31:49.075Z,0.50
2023-01-11T07:34:15.862Z,0.60
2023-01-11T07:36:42.265Z,0.60
2023-01-11T07:39:09.168Z,0.70
2023-01-11T07:41:54.774Z,0.90
2023-01-11T07:44:21.563Z,0.90
2023-01-11T07:46:48.078Z,0.73
2023-01-11T07:49:14.568Z,0.73
2023-01-11T07:51:40.909Z,0.90
2023-01-11T07:54:07.439Z,1.00
2023-01-11T07:56:33.898Z,1.00
2023-01-11T07:59:00.322Z,1.20
2023-01-11T08:01:27.027Z,1.00
2023-01-11T08:03:53.552Z,1.00
2023-01-11T08:06:20.015Z,1.30
2023-01-11T08:08:46.447Z,1.13
2023-01-11T08:11:31.563Z,1.05
2023-01-11T08:14:16.583Z,1.10
2023-01-11T08:16:42.951Z,0.90
2023-01-11T08:19:09.346Z,1.30
2023-01-11T08:21:36.163Z,1.30
2023-01-11T08:24:05.581Z,1.10
2023-01-11T08:26:31.948Z,0.90
2023-01-11T08:28:58.325Z,1.42
2023-01-11T08:31:25.912Z,1.00
2023-01-11T08:33:52.343Z,1.05
2023-01-11T08:36:18.803Z,0.80
2023-01-11T08:38:45.235Z,1.40
2023-01-11T08:41:11.686Z,1.15
2023-01-11T08:43:38.760Z,1.10
2023-01-11T08:46:08.302Z,1.40
2023-01-11T08:48:35.474Z,0.95
2023-01-11T08:51:01.960Z,1.20
2023-01-11T08:53:28.540Z,1.17
2023-01-11T08:55:54.919Z,1.20
2023-01-11T08:58:21.727Z,1.38
2023-01-11T09:00:48.320Z,1.65
2023-01-11T09:03:15.110Z,1.67
2023-01-11T09:05:42.293Z,2.20
2023-01-11T09:08:09.252Z,1.90
2023-01-11T09:10:35.611Z,1.65
2023-01-11T09:13:02.113Z,2.10
2023-01-11T09:15:28.522Z,2.28
2023-01-11T09:17:55.148Z,1.73
2023-01-11T09:20:22.115Z,2.05
2023-01-11T09:22:56.476Z,1.65
2023-01-11T09:25:23.246Z,1.58
2023-01-11T09:27:51.437Z,1.88
2023-01-11T09:30:23.078Z,1.70
2023-01-11T09:32:51.059Z,1.73
2023-01-11T09:35:19.185Z,2.05
2023-01-11T09:37:56.007Z,1.92
2023-01-11T09:40:30.830Z,2.17
2023-01-11T09:43:01.340Z,2.22
2023-01-11T09:45:31.777Z,1.95
2023-01-11T09:48:17.542Z,1.92
2023-01-11T09:50:48.360Z,2.13
2023-01-11T09:53:36.123Z,1.35
2023-01-11T09:56:05.490Z,1.77
2023-01-11T09:58:54.997Z,2.08
2023-01-11T10:01:37.795Z,1.83
2023-01-11T10:04:33.124Z,1.50
2023-01-11T10:07:37.300Z,2.13
2023-01-11T10:18:36.990Z,1.85
2023-01-11T10:19:48.009Z,1.90
2023-01-11T10:22:19.465Z,2.25
2023-01-11T10:24:50.583Z,1.80
2023-01-11T10:27:39.173Z,1.95
2023-01-11T10:30:32.863Z,1.80
2023-01-11T10:33:09.819Z,1.70
2023-01-11T10:36:15.843Z,1.70
2023-01-11T10:38:57.063Z,2.28
2023-01-11T10:41:38.523Z,2.33
2023-01-11T10:44:19.154Z,1.83
2023-01-11T10:46:50.536Z,2.08
2023-01-11T10:49:50.213Z,2.47
2023-01-11T10:52:29.259Z,2.15
2023-01-11T10:54:57.367Z,2.25
2023-01-11T10:57:33.967Z,2.58
2023-01-11T11:00:26.698Z,2.00
2023-01-11T11:03:21.447Z,2.00
2023-01-11T11:05:55.779Z,2.20
2023-01-11T11:08:27.179Z,2.40
2023-01-11T11:11:02.933Z,2.20
2023-01-11T11:13:32.044Z,2.22
2023-01-11T11:16:20.092Z,1.80
2023-01-11T11:18:47.013Z,2.17
2023-01-11T11:21:29.480Z,2.25
2023-01-11T11:24:01.677Z,1.95
2023-01-11T11:26:37.397Z,2.42
2023-01-11T11:29:07.228Z,1.88
2023-01-11T11:31:37.518Z,2.08
2023-01-11T11:34:11.780Z,2.10
2023-01-11T11:36:43.316Z,1.90
2023-01-11T11:39:24.334Z,1.90
2023-01-11T11:41:56.417Z,2.47
2023-01-11T11:44:25.789Z,2.92
2023-01-11T11:47:04.641Z,2.40
2023-01-11T11:49:34.018Z,1.77
2023-01-11T11:52:02.633Z,2.10
2023-01-11T11:54:31.194Z,1.80
2023-01-11T11:57:11.701Z,2.10
2023-01-11T11:59:38.180Z,2.10
2023-01-11T12:02:15.743Z,2.10
2023-01-11T12:04:48.690Z,2.65
2023-01-11T12:07:21.594Z,2.53
2023-01-11T12:09:55.567Z,2.10
2023-01-11T12:12:25.917Z,1.80
2023-01-11T12:15:15.429Z,2.00
2023-01-11T12:17:42.661Z,2.17
2023-01-11T12:20:29.175Z,1.95
2023-01-11T12:23:26.047Z,1.50
2023-01-11T12:26:16.646Z,1.77
2023-01-11T12:28:43.052Z,2.30
2023-01-11T12:31:24.761Z,2.10
2023-01-11T12:34:06.423Z,1.98
2023-01-11T12:36:54.670Z,2.15
2023-01-11T12:39:42.904Z,1.40
2023-01-11T12:42:41.843Z,2.03
2023-01-11T12:45:08.311Z,1.80
2023-01-11T12:47:52.058Z,2.15
2023-01-11T12:50:25.305Z,1.95
2023-01-11T12:53:06.162Z,2.40
2023-01-11T12:56:09.772Z,1.85
2023-01-11T12:58:44.369Z,2.10
2023-01-11T13:01:29.341Z,1.90
2023-01-11T13:04:19.702Z,1.95
2023-01-11T13:07:00.033Z,2.85
2023-01-11T13:09:37.626Z,2.10
2023-01-11T13:12:10.143Z,1.95
2023-01-11T13:14:47.507Z,1.98
2023-01-11T13:17:17.184Z,1.63
2023-01-11T13:20:06.567Z,2.35
2023-01-11T13:22:36.936Z,2.13
2023-01-11T13:25:12.521Z,1.92
2023-01-11T13:27:40.096Z,1.60
2023-01-11T13:30:12.084Z,1.75
2023-01-11T13:32:41.318Z,1.77
2023-01-11T13:35:18.374Z,1.70
2023-01-11T13:37:56.531Z,1.73
2023-01-11T13:40:27.110Z,2.10
2023-01-11T13:42:59.284Z,1.70
2023-01-11T13:45:30.266Z,1.60
2023-01-11T13:48:05.658Z,2.10
2023-01-11T13:50:41.561Z,1.50
2023-01-11T13:53:33.484Z,1.90
2023-01-11T13:56:03.180Z,2.08
2023-01-11T13:58:41.923Z,2.00
2023-01-11T14:01:15.187Z,1.70
2023-01-11T14:03:55.559Z,1.88
2023-01-11T14:06:54.264Z,2.00
2023-01-11T14:09:42.841Z,1.90
2023-01-11T14:12:17.530Z,2.50
2023-01-11T14:15:05.742Z,1.70
2023-01-11T14:17:32.097Z,1.60
2023-01-11T14:20:14.190Z,2.13
2023-01-11T14:23:07.788Z,2.45
2023-01-11T14:25:56.594Z,1.60
2023-01-11T14:28:44.372Z,1.75
2023-01-11T14:31:27.460Z,1.85
2023-01-11T14:34:14.463Z,2.17
2023-01-11T14:39:23.729Z,1.98
2023-01-11T14:42:29.337Z,1.95
2023-01-11T14:45:13.712Z,2.47
2023-01-11T14:48:03.235Z,1.67
2023-01-11T14:50:35.359Z,1.40
2023-01-11T14:53:03.993Z,1.83
2023-01-11T14:55:37.400Z,1.75
2023-01-11T14:58:17.615Z,1.77
2023-01-11T15:00:43.929Z,2.15
2023-01-11T15:03:12.863Z,2.00
2023-01-11T15:05:46.603Z,1.63
2023-01-11T15:08:15.709Z,1.90
2023-01-11T15:11:06.072Z,1.70
2023-01-11T15:13:44.379Z,2.08
2023-01-11T15:16:29.671Z,2.17
2023-01-11T15:18:56.301Z,1.70
2023-01-11T15:21:26.643Z,2.17
2023-01-11T15:23:58.370Z,1.75
2023-01-11T15:26:26.882Z,2.15
2023-01-11T15:28:59.265Z,1.77
2023-01-11T15:31:53.708Z,2.33
2023-01-11T15:34:26.168Z,1.75
2023-01-11T15:37:19.012Z,1.75
2023-01-11T15:39:58.935Z,1.90
2023-01-11T15:42:43.033Z,2.00
2023-01-11T15:45:38.179Z,2.47
2023-01-11T15:48:39.760Z,1.90
2023-01-11T15:51:34.833Z,1.77
2023-01-11T15:54:32.696Z,1.50
2023-01-11T15:57:23.682Z,1.83
2023-01-11T16:00:17.709Z,1.75
2023-01-11T16:03:05.729Z,1.75
2023-01-11T16:05:37.341Z,1.15
2023-01-11T16:08:19.120Z,1.55
2023-01-11T16:10:52.712Z,2.17
2023-01-11T16:13:31.106Z,1.67
2023-01-11T16:16:12.799Z,1.85
2023-01-11T16:18:44.908Z,1.40
2023-01-11T16:21:33.418Z,1.65
2023-01-11T16:24:04.813Z,1.75
2023-01-11T16:26:34.002Z,1.70
2023-01-11T16:29:12.573Z,1.55
2023-01-11T16:32:00.169Z,1.17
2023-01-11T16:34:29.112Z,1.27
2023-01-11T16:36:57.532Z,1.30
2023-01-11T16:39:29.681Z,1.65
2023-01-11T16:42:05.645Z,1.40
2023-01-11T16:44:44.535Z,1.55
2023-01-11T16:47:16.771Z,1.70
2023-01-11T16:49:49.047Z,1.25
2023-01-11T16:52:36.913Z,1.50
2023-01-11T16:55:30.009Z,1.50
2023-01-11T16:57:59.045Z,1.55
2023-01-11T17:00:38.274Z,1.88
2023-01-11T17:03:25.886Z,1.60
2023-01-11T17:06:02.164Z,1.85
2023-01-11T17:08:32.787Z,1.48
2023-01-11T17:11:10.525Z,1.50
2023-01-11T17:14:02.131Z,1.77
2023-01-11T17:16:31.740Z,1.50
2023-01-11T17:19:06.173Z,1.67
2023-01-11T17:21:32.695Z,1.50
2023-01-11T17:24:02.596Z,1.67
2023-01-11T17:26:33.288Z,1.95
2023-01-11T17:29:00.525Z,1.45
2023-01-11T17:31:32.100Z,2.03
2023-01-11T17:34:20.556Z,1.83
2023-01-11T17:36:47.885Z,1.70
2023-01-11T17:39:25.720Z,1.60
2023-01-11T17:42:11.191Z,1.55
2023-01-11T17:44:56.433Z,1.55
2023-01-11T17:47:23.763Z,1.80
2023-01-11T17:49:54.734Z,1.50
2023-01-11T17:52:24.355Z,1.77
2023-01-11T17:55:02.523Z,1.50
2023-01-11T17:57:29.123Z,1.77
2023-01-11T18:00:18.874Z,1.48
2023-01-11T18:02:46.453Z,1.75
2023-01-11T18:05:18.721Z,1.98
2023-01-11T18:07:50.314Z,1.90
2023-01-11T18:10:26.801Z,1.65
2023-01-11T18:15:34.548Z,1.92
2023-01-11T18:18:01.654Z,1.45
2023-01-11T18:20:40.952Z,2.03
2023-01-11T18:23:22.613Z,1.50
2023-01-11T18:25:49.099Z,2.33
2023-01-11T18:28:25.971Z,1.85
2023-01-11T18:30:58.212Z,2.15
2023-01-11T18:33:28.014Z,2.22
2023-01-11T18:35:59.883Z,1.65
2023-01-11T18:38:29.177Z,1.63
2023-01-11T18:40:58.476Z,1.63
2023-01-11T18:43:28.059Z,1.65
2023-01-11T18:45:55.476Z,1.80
2023-01-11T18:48:22.837Z,2.15
2023-01-11T18:50:51.850Z,2.05
2023-01-11T18:53:18.724Z,2.10
2023-01-11T18:55:46.076Z,2.35
2023-01-11T18:58:12.543Z,2.17
2023-01-11T19:00:40.954Z,1.90
2023-01-11T19:03:10.787Z,1.60
2023-01-11T19:05:37.332Z,1.77
2023-01-11T19:08:03.885Z,1.77
2023-01-11T19:10:30.283Z,1.73
2023-01-11T19:12:57.385Z,2.03
2023-01-11T19:15:24.362Z,2.45
2023-01-11T19:17:50.774Z,1.80
2023-01-11T19:20:17.310Z,1.98
2023-01-11T19:22:43.860Z,1.92
2023-01-11T19:25:10.772Z,2.88
2023-01-11T19:27:37.584Z,2.53
2023-01-11T19:30:07.453Z,2.05
2023-01-11T19:32:33.973Z,2.75
2023-01-11T19:35:00.575Z,2.22
2023-01-11T19:37:29.931Z,1.95
2023-01-11T19:39:56.481Z,2.08
2023-01-11T19:42:23.867Z,2.00
2023-01-11T19:44:51.287Z,2.35
2023-01-11T19:47:17.709Z,2.05
2023-01-11T19:49:44.290Z,1.75
2023-01-11T19:52:13.536Z,2.47
2023-01-11T19:54:43.656Z,2.40
2023-01-11T19:57:15.370Z,2.00
2023-01-11T19:59:42.163Z,2.00
2023-01-11T20:02:10.982Z,2.10
2023-01-11T20:04:37.406Z,2.42
2023-01-11T20:07:04.394Z,2.53
2023-01-11T20:09:30.786Z,2.42
2023-01-11T20:11:58.732Z,2.08
2023-01-11T20:14:25.504Z,2.20
2023-01-11T20:16:51.968Z,2.10
2023-01-11T20:19:18.377Z,2.00
2023-01-11T20:21:45.832Z,2.10
2023-01-11T20:24:13.788Z,2.08
2023-01-11T20:26:41.538Z,2.38
2023-01-11T20:29:08.156Z,2.38
2023-01-11T20:31:35.755Z,1.63
2023-01-11T20:34:10.958Z,2.60
2023-01-11T20:36:40.602Z,1.70
2023-01-11T20:39:07.234Z,2.13
2023-01-11T20:41:49.222Z,1.80
2023-01-11T20:44:23.702Z,1.95
2023-01-11T20:46:51.636Z,2.22
2023-01-11T20:49:18.735Z,1.67
2023-01-11T20:51:46.442Z,2.22
2023-01-11T20:54:13.119Z,1.83
2023-01-11T20:56:40.757Z,2.10
2023-01-11T20:59:09.043Z,2.05
2023-01-11T21:01:36.865Z,2.40
2023-01-11T21:04:07.938Z,2.05
2023-01-11T21:06:37.175Z,1.90
2023-01-11T21:09:05.066Z,1.70
2023-01-11T21:11:32.082Z,1.80
2023-01-11T21:14:00.515Z,1.90
2023-01-11T21:16:28.805Z,1.83
2023-01-11T21:18:57.473Z,2.65
2023-01-11T21:21:24.970Z,2.33
2023-01-11T21:23:55.380Z,1.80
2023-01-11T21:26:21.902Z,1.85
2023-01-11T21:28:59.645Z,2.65
2023-01-11T21:31:34.465Z,2.20
2023-01-11T21:34:02.037Z,1.70
2023-01-11T21:36:30.400Z,2.17
2023-01-11T21:38:58.260Z,1.73
2023-01-11T21:41:45.914Z,1.60
2023-01-11T21:44:13.777Z,2.03
2023-01-11T21:46:41.153Z,1.63
2023-01-11T21:49:08.011Z,1.63
2023-01-11T21:51:34.616Z,1.90
2023-01-11T21:54:04.854Z,1.80
2023-01-11T21:56:31.313Z,2.03
2023-01-11T21:58:57.740Z,1.63
2023-01-11T22:01:24.105Z,1.80
2023-01-11T22:03:50.803Z,1.58
2023-01-11T22:06:17.736Z,1.77
2023-01-11T22:08:45.203Z,1.65
2023-01-11T22:11:13.943Z,2.08
2023-01-11T22:13:41.179Z,1.70
2023-01-11T22:16:11.584Z,1.80
2023-01-11T22:18:38.027Z,2.13
2023-01-11T22:21:09.335Z,1.40
2023-01-11T22:23:36.148Z,1.95
2023-01-11T22:26:04.859Z,1.40
2023-01-11T22:28:31.227Z,1.95
2023-01-11T22:31:05.189Z,1.70
2023-01-11T22:33:31.677Z,1.30
2023-01-11T22:35:58.078Z,1.83
2023-01-11T22:38:24.487Z,2.08
2023-01-11T22:40:50.893Z,2.28
2023-01-11T22:43:17.267Z,1.38
2023-01-11T22:45:43.656Z,1.80
2023-01-11T22:48:10.015Z,1.52
2023-01-11T22:50:38.644Z,1.58
2023-01-11T22:53:04.984Z,1.52
2023-01-11T22:55:33.054Z,1.60
2023-01-11T22:57:59.449Z,1.63
2023-01-11T23:00:25.842Z,1.50
2023-01-11T23:02:52.429Z,2.13
2023-01-11T23:05:18.895Z,1.83
2023-01-11T23:07:45.260Z,1.92
2023-01-11T23:10:11.612Z,1.33
2023-01-11T23:12:58.626Z,1.27
2023-01-11T23:17:51.358Z,2.47
2023-01-11T23:20:17.885Z,1.35
2023-01-11T23:22:44.315Z,1.20
2023-01-11T23:25:10.740Z,1.50
2023-01-11T23:27:37.153Z,1.40
2023-01-11T23:30:04.111Z,1.95
2023-01-11T23:32:30.512Z,1.92
2023-01-11T23:34:56.927Z,1.30
2023-01-11T23:37:23.296Z,1.67
2023-01-11T23:39:49.666Z,1.27
2023-01-11T23:42:28.000Z,1.27
2023-01-11T23:44:55.154Z,1.58
2023-01-11T23:47:24.604Z,1.15
2023-01-11T23:49:55.764Z,1.73
2023-01-11T23:52:25.242Z,1.80
2023-01-11T23:54:51.924Z,1.20
2023-01-11T23:57:19.779Z,1.70
2023-01-11T23:59:46.540Z,1.58
